Time;durP1;ratioP1;P1;durP2;ratioP2;P2;SDS_P1;SDS_P2;PMS_P1;PMS_P2;Temp;Humidity;BMP_temperature;BMP_pressure;BME280_temperature;BME280_humidity;BME280_pressure;Samples;Min_cycle;Max_cycle;Signal;HPM_P1;HPM_P2
2021/10/24 00:01:31;;;;;;;10.10;2.60;;;12.50;99.90;;;;;;5077259;28;20040;-90
2021/10/24 00:04:06;;;;;;;5.82;3.85;;;12.50;99.90;;;;;;5118886;28;20422;-89
2021/10/24 00:06:57;;;;;;;4.75;2.30;;;12.50;99.90;;;;;;5079571;28;20048;-90
2021/10/24 00:09:52;;;;;;;7.38;2.65;;;12.50;99.90;;;;;;5079919;28;20513;-90
2021/10/24 00:12:42;;;;;;;5.80;2.92;;;12.50;99.90;;;;;;5076486;28;20044;-89
2021/10/24 00:15:58;;;;;;;5.82;2.38;;;12.60;99.90;;;;;;5111162;28;20043;-90
2021/10/24 00:19:24;;;;;;;3.63;2.70;;;12.30;99.90;;;;;;5127632;28;20048;-89
2021/10/24 00:22:37;;;;;;;3.60;3.05;;;13.10;99.90;;;;;;5114241;28;20044;-90
2021/10/24 00:25:20;;;;;;;4.47;2.05;;;12.60;99.90;;;;;;5077415;28;20060;-90
2021/10/24 00:28:31;;;;;;;4.55;2.28;;;12.50;99.90;;;;;;5120676;28;20052;-90
2021/10/24 00:31:45;;;;;;;9.88;2.75;;;12.50;99.90;;;;;;5077227;28;20032;-91
2021/10/24 00:34:33;;;;;;;3.70;2.30;;;12.60;99.90;;;;;;5110600;28;20054;-92
2021/10/24 00:37:03;;;;;;;8.98;2.10;;;12.50;99.90;;;;;;5091495;28;20052;-92
2021/10/24 00:39:47;;;;;;;5.57;2.47;;;12.50;99.90;;;;;;4721369;28;10000547;-92
2021/10/24 00:42:47;;;;;;;4.95;2.45;;;12.50;99.90;;;;;;5083400;28;20043;-91
2021/10/24 00:45:19;;;;;;;5.30;2.20;;;12.50;99.90;;;;;;5107960;28;20086;-92
2021/10/24 00:47:54;;;;;;;13.50;3.00;;;12.50;99.90;;;;;;5128253;28;20052;-92
2021/10/24 00:50:35;;;;;;;4.28;2.28;;;12.50;99.90;;;;;;5072448;28;20054;-93
2021/10/24 00:53:12;;;;;;;3.03;1.98;;;12.50;99.90;;;;;;5110005;28;20056;-93
2021/10/24 00:55:55;;;;;;;5.20;1.80;;;12.50;99.90;;;;;;5072854;28;20047;-94
2021/10/24 00:58:26;;;;;;;7.60;1.85;;;12.50;99.90;;;;;;5087836;28;20048;-90
2021/10/24 01:00:55;;;;;;;7.63;2.13;;;12.50;99.90;;;;;;5073597;28;20055;-92
2021/10/24 01:03:39;;;;;;;4.55;2.35;;;12.50;99.90;;;;;;5075736;28;20059;-92
2021/10/24 01:06:21;;;;;;;4.38;2.25;;;12.50;99.90;;;;;;5081781;28;20052;-91
2021/10/24 01:08:51;;;;;;;6.50;2.08;;;12.50;99.90;;;;;;5037399;28;20054;-93
2021/10/24 01:11:20;;;;;;;5.20;1.88;;;12.50;99.90;;;;;;5094248;28;20052;-93
2021/10/24 01:13:52;;;;;;;5.45;1.80;;;12.50;99.90;;;;;;5103520;28;20036;-92
2021/10/24 01:16:22;;;;;;;5.22;2.28;;;11.70;99.90;;;;;;5068426;28;20058;-93
2021/10/24 01:18:55;;;;;;;5.43;2.05;;;12.50;99.90;;;;;;5092069;28;20040;-92
2021/10/24 01:21:23;;;;;;;3.45;2.00;;;12.40;99.90;;;;;;5098975;28;20051;-93
2021/10/24 01:23:52;;;;;;;4.82;2.88;;;12.50;99.90;;;;;;5070209;28;20056;-92
2021/10/24 01:26:20;;;;;;;5.07;2.10;;;12.40;99.90;;;;;;5082931;28;20044;-94
2021/10/24 01:28:49;;;;;;;5.95;2.42;;;12.50;99.90;;;;;;5064789;28;20613;-93
2021/10/24 01:31:17;;;;;;;6.82;2.40;;;12.50;99.90;;;;;;5064738;28;20056;-94
2021/10/24 01:33:47;;;;;;;7.00;2.33;;;13.00;99.90;;;;;;5043996;28;20051;-94
2021/10/24 01:36:16;;;;;;;7.15;2.63;;;12.50;99.90;;;;;;5078134;28;20059;-91
2021/10/24 01:38:51;;;;;;;6.38;2.40;;;12.50;99.90;;;;;;5031177;28;20057;-89
2021/10/24 01:41:28;;;;;;;7.10;2.25;;;12.50;99.90;;;;;;5051477;28;20053;-90
2021/10/24 01:43:57;;;;;;;6.90;2.05;;;12.50;99.90;;;;;;5048310;28;20052;-91
2021/10/24 01:46:28;;;;;;;13.93;4.13;;;12.50;99.90;;;;;;5080951;28;20044;-92
2021/10/24 01:49:07;;;;;;;6.30;2.47;;;12.50;99.90;;;;;;5067445;28;20052;-93
2021/10/24 01:51:52;;;;;;;5.43;2.75;;;12.50;99.90;;;;;;5047192;28;20040;-92
2021/10/24 01:54:21;;;;;;;5.40;2.30;;;12.60;99.90;;;;;;5041847;28;20048;-91
2021/10/24 01:56:54;;;;;;;5.50;2.47;;;12.50;99.90;;;;;;5063535;28;20049;-92
2021/10/24 01:59:24;;;;;;;5.18;2.25;;;12.40;99.90;;;;;;5039476;28;20059;-93
2021/10/24 02:02:11;;;;;;;3.42;2.50;;;12.40;99.90;;;;;;5057139;28;20044;-89
2021/10/24 02:04:58;;;;;;;6.55;2.45;;;12.40;99.90;;;;;;5087635;28;20086;-93
2021/10/24 02:07:30;;;;;;;6.97;3.25;;;12.30;99.90;;;;;;5066749;28;20049;-91
2021/10/24 02:09:59;;;;;;;6.95;2.75;;;12.30;99.90;;;;;;5067023;28;20553;-93
2021/10/24 02:12:38;;;;;;;4.40;2.55;;;12.30;99.90;;;;;;5073797;28;20048;-93
2021/10/24 02:15:16;;;;;;;6.80;2.47;;;12.30;99.90;;;;;;5071890;28;20049;-91
2021/10/24 02:17:48;;;;;;;5.07;2.10;;;12.20;99.90;;;;;;5076378;28;20052;-93
2021/10/24 02:20:26;;;;;;;4.15;1.85;;;12.20;99.90;;;;;;5052584;28;20047;-92
2021/10/24 02:23:01;;;;;;;5.70;2.60;;;12.20;99.90;;;;;;5066552;28;20052;-91
2021/10/24 02:25:30;;;;;;;6.15;2.50;;;13.00;99.90;;;;;;5050981;28;20059;-91
2021/10/24 02:28:02;;;;;;;5.07;3.17;;;12.20;99.90;;;;;;5062791;28;20067;-93
2021/10/24 02:30:45;;;;;;;4.90;3.00;;;12.20;99.90;;;;;;5069126;28;20041;-92
2021/10/24 02:33:47;;;;;;;6.18;2.03;;;12.30;99.90;;;;;;5062529;28;20059;-93
2021/10/24 02:36:32;;;;;;;6.93;2.05;;;12.20;99.90;;;;;;5082186;28;20045;-92
2021/10/24 02:39:04;;;;;;;3.47;2.03;;;12.30;99.90;;;;;;5057240;28;20053;-92
2021/10/24 02:41:39;;;;;;;6.80;2.95;;;12.40;99.90;;;;;;5067450;28;20052;-91
2021/10/24 02:44:08;;;;;;;2.67;1.80;;;12.20;99.90;;;;;;5075357;28;20407;-92
2021/10/24 02:46:45;;;;;;;10.07;2.13;;;12.30;99.90;;;;;;5086505;28;20048;-91
2021/10/24 02:49:13;;;;;;;4.82;2.22;;;12.30;99.90;;;;;;5068839;28;20048;-90
2021/10/24 02:51:58;;;;;;;5.25;2.13;;;12.30;99.90;;;;;;5086360;28;20220;-90
2021/10/24 02:54:33;;;;;;;9.70;2.45;;;12.30;99.90;;;;;;5050648;28;20131;-91
2021/10/24 02:57:06;;;;;;;7.53;2.50;;;12.30;99.90;;;;;;5069741;28;20052;-91
2021/10/24 02:59:35;;;;;;;5.50;1.88;;;12.30;99.90;;;;;;5053807;28;20218;-92
2021/10/24 03:02:05;;;;;;;6.85;2.30;;;12.40;99.90;;;;;;5062171;28;20045;-94
2021/10/24 03:04:35;;;;;;;7.88;2.00;;;12.30;99.90;;;;;;5070559;28;20056;-93
2021/10/24 03:07:06;;;;;;;9.40;2.08;;;12.30;99.90;;;;;;5071598;28;20056;-93
2021/10/24 03:09:35;;;;;;;8.18;2.05;;;12.20;99.90;;;;;;5045570;28;20075;-91
2021/10/24 03:12:08;;;;;;;7.95;3.00;;;12.20;99.90;;;;;;5070275;28;20045;-92
2021/10/24 03:14:38;;;;;;;6.18;2.33;;;12.20;99.90;;;;;;5072523;28;20049;-92
2021/10/24 03:17:19;;;;;;;10.30;2.17;;;12.10;99.90;;;;;;5068288;28;20045;-91
2021/10/24 03:19:50;;;;;;;6.05;2.17;;;12.20;99.90;;;;;;5045350;28;20053;-92
2021/10/24 03:22:32;;;;;;;6.22;2.67;;;12.20;99.90;;;;;;5073007;28;20032;-92
2021/10/24 03:25:11;;;;;;;9.15;3.22;;;12.20;99.90;;;;;;5072056;28;20290;-93
2021/10/24 03:27:44;;;;;;;11.02;2.40;;;12.20;99.90;;;;;;5033481;28;20050;-92
2021/10/24 03:30:16;;;;;;;4.35;2.63;;;12.20;99.90;;;;;;5057069;28;20060;-92
2021/10/24 03:32:54;;;;;;;3.03;2.08;;;12.20;99.90;;;;;;5048172;28;20480;-93
2021/10/24 03:35:23;;;;;;;2.95;1.90;;;12.20;99.90;;;;;;5059252;28;20057;-92
2021/10/24 03:37:51;;;;;;;2.42;1.42;;;12.20;99.90;;;;;;5062775;28;20076;-92
2021/10/24 03:40:20;;;;;;;6.53;2.13;;;12.20;99.90;;;;;;5064539;28;20095;-93
2021/10/24 03:42:48;;;;;;;9.13;3.03;;;12.20;99.90;;;;;;5058162;28;20507;-92
2021/10/24 03:45:17;;;;;;;3.63;1.83;;;12.20;99.90;;;;;;5085064;28;20051;-93
2021/10/24 03:47:47;;;;;;;2.38;1.63;;;12.20;99.90;;;;;;5076426;28;20052;-92
2021/10/24 03:50:17;;;;;;;7.78;2.08;;;12.20;99.90;;;;;;5073008;28;20048;-93
2021/10/24 03:52:49;;;;;;;5.30;1.77;;;12.20;99.90;;;;;;5085149;28;20041;-93
2021/10/24 03:55:25;;;;;;;7.20;1.92;;;12.20;99.90;;;;;;5096649;28;20063;-92
2021/10/24 03:57:52;;;;;;;4.80;1.95;;;12.20;99.90;;;;;;5065197;28;20067;-92
2021/10/24 04:00:21;;;;;;;8.45;2.03;;;12.20;99.90;;;;;;5065386;28;20048;-91
2021/10/24 04:03:07;;;;;;;4.57;1.60;;;12.20;99.90;;;;;;5080127;28;20407;-92
2021/10/24 04:05:48;;;;;;;6.00;1.60;;;12.20;99.90;;;;;;5060767;28;20052;-91
2021/10/24 04:08:18;;;;;;;10.27;2.70;;;12.20;99.90;;;;;;5056510;28;20045;-92
2021/10/24 04:10:47;;;;;;;8.02;1.35;;;12.20;99.90;;;;;;5080447;28;20470;-93
2021/10/24 04:13:16;;;;;;;6.90;2.42;;;12.20;99.90;;;;;;5064853;28;20045;-92
2021/10/24 04:15:45;;;;;;;4.22;1.95;;;12.10;99.90;;;;;;5046302;28;20055;-92
2021/10/24 04:18:38;;;;;;;4.70;2.35;;;12.20;99.90;;;;;;5065381;28;20055;-91
2021/10/24 04:21:07;;;;;;;7.22;2.80;;;12.20;99.90;;;;;;5079759;28;20059;-91
2021/10/24 04:23:37;;;;;;;1.85;1.58;;;12.30;99.90;;;;;;5081841;28;20047;-93
2021/10/24 04:26:05;;;;;;;3.88;1.65;;;12.50;99.90;;;;;;5080301;28;20060;-92
2021/10/24 04:28:36;;;;;;;;;;;12.20;99.90;;;;;;5063211;28;20051;-92
2021/10/24 04:31:04;;;;;;;3.60;1.60;;;12.20;99.90;;;;;;5044661;28;19915;-92
2021/10/24 04:34:15;;;;;;;6.68;1.92;;;12.20;99.90;;;;;;5073145;28;20054;-93
2021/10/24 04:36:46;;;;;;;8.68;2.38;;;12.20;99.90;;;;;;5079174;28;20527;-92
2021/10/24 04:39:20;;;;;;;4.35;1.65;;;12.20;99.90;;;;;;5069674;28;20497;-93
2021/10/24 04:41:51;;;;;;;4.07;2.10;;;12.20;99.90;;;;;;5074201;28;20327;-93
2021/10/24 04:44:19;;;;;;;5.22;1.73;;;12.20;99.90;;;;;;5099388;28;20052;-92
2021/10/24 04:46:48;;;;;;;7.75;1.83;;;12.20;99.90;;;;;;5101609;28;20048;-92
2021/10/24 04:49:17;;;;;;;4.93;2.00;;;12.30;99.90;;;;;;5079494;28;20048;-91
2021/10/24 04:52:01;;;;;;;2.35;1.52;;;12.20;99.90;;;;;;5081977;28;20040;-92
2021/10/24 04:54:44;;;;;;;6.93;2.55;;;12.20;99.90;;;;;;5100999;28;20066;-92
2021/10/24 04:57:14;;;;;;;10.25;3.47;;;12.20;99.90;;;;;;5107816;28;20044;-92
2021/10/24 04:59:45;;;;;;;6.03;2.55;;;12.20;99.90;;;;;;5089324;28;20074;-93
2021/10/24 05:02:22;;;;;;;5.78;1.77;;;12.20;99.90;;;;;;5053947;28;20052;-93
2021/10/24 05:04:51;;;;;;;9.32;1.90;;;12.20;99.90;;;;;;5082079;28;20044;-91
2021/10/24 05:07:35;;;;;;;7.88;1.92;;;12.20;99.90;;;;;;5059242;28;20056;-93
2021/10/24 05:10:05;;;;;;;4.07;2.13;;;12.30;99.90;;;;;;5068685;28;20055;-93
2021/10/24 05:12:47;;;;;;;5.85;1.65;;;12.20;99.90;;;;;;5065344;28;20494;-93
2021/10/24 05:15:21;;;;;;;6.63;2.58;;;12.20;99.90;;;;;;5085400;28;20067;-91
2021/10/24 05:17:53;;;;;;;6.78;1.95;;;12.20;99.90;;;;;;5061908;28;20052;-91
2021/10/24 05:20:23;;;;;;;10.38;2.42;;;12.20;99.90;;;;;;5047201;28;20044;-93
2021/10/24 05:23:05;;;;;;;7.93;2.60;;;12.20;99.90;;;;;;5066619;28;20044;-93
2021/10/24 05:25:51;;;;;;;8.05;3.03;;;12.20;99.90;;;;;;5078239;28;20048;-92
2021/10/24 05:28:22;;;;;;;3.78;2.00;;;12.20;99.90;;;;;;5090872;28;20052;-93
2021/10/24 05:30:52;;;;;;;5.78;2.05;;;12.20;99.90;;;;;;5093650;28;20419;-93
2021/10/24 05:33:24;;;;;;;5.80;2.13;;;12.20;99.90;;;;;;5047214;28;20052;-90
2021/10/24 05:36:13;;;;;;;12.00;2.15;;;12.20;99.90;;;;;;5097009;28;20407;-93
2021/10/24 05:38:44;;;;;;;3.72;1.95;;;12.20;99.90;;;;;;5073600;28;20399;-93
2021/10/24 05:41:18;;;;;;;7.40;1.90;;;12.20;99.90;;;;;;5081710;28;20053;-92
2021/10/24 05:43:47;;;;;;;6.82;2.15;;;12.20;99.90;;;;;;5092907;28;20044;-93
2021/10/24 05:46:19;;;;;;;3.97;1.58;;;12.20;99.90;;;;;;5092947;28;20047;-93
2021/10/24 05:49:13;;;;;;;6.25;1.83;;;12.20;99.90;;;;;;5077528;28;20059;-92
2021/10/24 05:51:50;;;;;;;4.97;2.05;;;12.10;99.90;;;;;;5065080;28;20046;-92
2021/10/24 05:54:27;;;;;;;7.38;1.90;;;12.20;99.90;;;;;;5101689;28;20402;-92
2021/10/24 05:56:57;;;;;;;5.00;1.65;;;12.20;99.90;;;;;;5082246;28;20044;-92
2021/10/24 05:59:46;;;;;;;6.50;2.00;;;12.20;99.90;;;;;;5085644;28;20071;-93
2021/10/24 06:02:19;;;;;;;4.47;2.72;;;12.20;99.90;;;;;;5095694;28;20052;-93
2021/10/24 06:05:12;;;;;;;4.03;2.03;;;12.20;99.90;;;;;;5095839;28;20040;-89
2021/10/24 06:07:42;;;;;;;3.27;2.27;;;12.20;99.90;;;;;;5082219;28;20058;-92
2021/10/24 06:10:27;;;;;;;7.43;2.40;;;10.80;99.90;;;;;;5082023;28;20049;-93
2021/10/24 06:12:58;;;;;;;9.90;2.20;;;12.20;99.90;;;;;;5105522;28;20054;-93
2021/10/24 06:15:39;;;;;;;6.70;2.80;;;12.20;99.90;;;;;;5069862;28;20048;-94
2021/10/24 06:18:29;;;;;;;6.10;2.10;;;12.10;99.90;;;;;;5083913;28;20066;-92
2021/10/24 06:21:12;;;;;;;5.35;2.05;;;12.10;99.90;;;;;;5057533;28;20058;-93
2021/10/24 06:23:40;;;;;;;10.02;2.55;;;12.10;99.90;;;;;;5073280;28;20055;-92
2021/10/24 06:26:18;;;;;;;5.13;2.45;;;11.10;99.90;;;;;;5087605;28;20035;-93
2021/10/24 06:29:03;;;;;;;3.97;1.60;;;12.10;99.90;;;;;;5076518;28;20040;-94
2021/10/24 06:31:43;;;;;;;4.18;1.77;;;12.10;99.90;;;;;;5063076;28;20051;-94
2021/10/24 06:34:51;;;;;;;8.77;2.40;;;12.90;99.90;;;;;;5088389;28;20060;-92
2021/10/24 06:37:55;;;;;;;8.55;2.28;;;12.10;99.90;;;;;;5091963;28;20031;-93
2021/10/24 06:40:39;;;;;;;4.78;2.47;;;12.10;99.90;;;;;;5090418;28;20036;-94
2021/10/24 06:43:27;;;;;;;3.00;1.70;;;12.10;99.90;;;;;;5058129;28;20052;-94
2021/10/24 06:46:15;;;;;;;2.58;1.52;;;12.10;99.90;;;;;;5092910;28;20040;-93
2021/10/24 06:49:20;;;;;;;4.35;2.10;;;12.10;99.90;;;;;;5106290;28;20040;-91
2021/10/24 06:52:24;;;;;;;2.35;1.63;;;12.10;99.90;;;;;;5091710;28;20044;-91
2021/10/24 06:55:34;;;;;;;5.40;2.17;;;12.10;99.90;;;;;;5082392;28;20032;-93
2021/10/24 06:58:28;;;;;;;10.43;2.63;;;12.10;99.90;;;;;;5104493;28;20039;-92
2021/10/24 07:01:16;;;;;;;6.75;1.98;;;12.10;99.90;;;;;;5088659;28;20044;-93
2021/10/24 07:04:15;;;;;;;5.28;1.52;;;12.20;99.90;;;;;;5097277;28;20419;-93
2021/10/24 07:07:05;;;;;;;8.82;2.88;;;12.10;99.90;;;;;;5096773;28;20055;-93
2021/10/24 07:10:00;;;;;;;5.38;1.90;;;12.20;99.90;;;;;;5074363;28;20056;-92
2021/10/24 07:12:36;;;;;;;5.97;1.90;;;12.20;99.90;;;;;;5104386;28;20169;-92
2021/10/24 07:16:01;;;;;;;10.07;2.47;;;12.50;99.90;;;;;;5102096;28;20059;-94
2021/10/24 07:18:34;;;;;;;7.40;2.20;;;12.20;99.90;;;;;;5087137;28;20048;-91
2021/10/24 07:21:04;;;;;;;5.60;2.00;;;12.20;99.90;;;;;;5092298;28;20052;-92
2021/10/24 07:23:50;;;;;;;5.45;2.10;;;12.20;99.90;;;;;;5112059;28;20048;-91
2021/10/24 07:26:23;;;;;;;4.82;2.22;;;12.20;99.90;;;;;;5090894;28;20048;-91
2021/10/24 07:29:08;;;;;;;7.63;2.80;;;13.00;99.90;;;;;;5058741;28;20056;-91
2021/10/24 07:32:06;;;;;;;5.55;1.92;;;12.20;99.90;;;;;;5093849;28;20047;-92
2021/10/24 07:35:28;;;;;;;10.30;2.38;;;12.30;99.90;;;;;;5076104;28;20060;-92
2021/10/24 07:38:13;;;;;;;7.63;2.58;;;12.30;99.90;;;;;;5095590;28;20047;-91
2021/10/24 07:40:53;;;;;;;5.35;2.28;;;11.70;99.90;;;;;;5096575;28;20039;-89
2021/10/24 07:43:33;;;;;;;9.43;2.17;;;12.40;99.90;;;;;;5079421;28;20055;-92
2021/10/24 07:46:10;;;;;;;4.32;1.90;;;12.40;99.90;;;;;;5085561;28;20052;-92
2021/10/24 07:48:47;;;;;;;5.70;3.42;;;11.40;99.90;;;;;;5092809;28;20052;-92
2021/10/24 07:51:19;;;;;;;5.07;2.10;;;12.50;99.90;;;;;;5096844;28;20059;-92
2021/10/24 07:54:15;;;;;;;5.57;2.30;;;12.50;99.90;;;;;;5104820;28;20044;-93
2021/10/24 07:56:49;;;;;;;8.35;2.13;;;12.50;99.90;;;;;;5099639;28;20385;-92
2021/10/24 07:59:27;;;;;;;8.20;2.22;;;12.50;99.90;;;;;;5106556;28;20052;-91
2021/10/24 08:02:02;;;;;;;10.50;2.30;;;12.60;99.90;;;;;;5083915;28;20056;-91
2021/10/24 08:04:34;;;;;;;9.35;3.70;;;12.70;99.90;;;;;;5099328;28;20052;-92
2021/10/24 08:07:13;;;;;;;13.55;2.42;;;12.60;99.90;;;;;;5077879;28;20086;-92
2021/10/24 08:09:53;;;;;;;7.55;2.47;;;12.70;99.90;;;;;;5097145;28;20047;-93
2021/10/24 08:12:24;;;;;;;9.43;2.55;;;12.70;99.90;;;;;;5084002;28;20404;-91
2021/10/24 08:15:03;;;;;;;10.48;2.83;;;12.80;99.90;;;;;;5077307;28;20054;-94
2021/10/24 08:17:43;;;;;;;16.67;3.28;;;12.90;99.90;;;;;;5070214;28;20601;-91
2021/10/24 08:20:51;;;;;;;11.25;1.92;;;13.00;99.90;;;;;;5010608;28;20058;-92
2021/10/24 08:23:44;;;;;;;5.97;2.65;;;13.10;99.90;;;;;;4991520;28;20069;-93
2021/10/24 08:26:18;;;;;;;6.68;1.90;;;13.00;99.90;;;;;;5022461;28;20054;-92
2021/10/24 08:28:51;;;;;;;6.93;1.88;;;13.10;99.90;;;;;;5018807;28;20394;-92
2021/10/24 08:31:58;;;;;;;10.02;2.25;;;13.00;99.90;;;;;;5069557;28;20056;-92
2021/10/24 08:34:33;;;;;;;2.43;1.70;;;13.30;99.90;;;;;;5077662;28;20048;-91
2021/10/24 08:37:09;;;;;;;16.80;2.80;;;13.40;99.90;;;;;;5074682;28;20056;-93
2021/10/24 08:39:56;;;;;;;5.78;2.72;;;13.40;99.90;;;;;;5070514;28;20048;-93
2021/10/24 08:42:32;;;;;;;11.57;2.28;;;13.50;99.90;;;;;;5073288;28;20048;-93
2021/10/24 08:45:24;;;;;;;13.57;2.45;;;13.50;99.90;;;;;;5086624;28;20036;-91
2021/10/24 08:48:01;;;;;;;27.27;7.47;;;13.50;99.90;;;;;;5079713;28;20051;-92
2021/10/24 08:50:32;;;;;;;8.07;2.40;;;13.60;99.90;;;;;;5085488;28;20059;-93
2021/10/24 08:53:20;;;;;;;203.65;33.45;;;13.90;99.90;;;;;;4699637;28;9999688;-92
2021/10/24 08:55:49;;;;;;;9.85;3.03;;;13.70;99.90;;;;;;5071538;28;20045;-93
2021/10/24 08:58:21;;;;;;;9.07;2.83;;;14.30;99.90;;;;;;5081882;28;20060;-92
2021/10/24 09:00:54;;;;;;;11.90;2.88;;;13.90;99.90;;;;;;5066204;28;20056;-93
2021/10/24 09:03:24;;;;;;;7.95;2.15;;;13.80;99.90;;;;;;5061720;28;20045;-93
2021/10/24 09:05:54;;;;;;;7.70;2.25;;;13.80;99.90;;;;;;5056306;23;20064;-91
2021/10/24 09:08:27;;;;;;;6.47;2.15;;;13.90;99.90;;;;;;5047084;28;20050;-91
2021/10/24 09:11:12;;;;;;;4.78;2.40;;;13.90;99.90;;;;;;5044788;28;20067;-91
2021/10/24 09:13:53;;;;;;;8.95;2.83;;;14.00;99.90;;;;;;5055388;28;20064;-89
2021/10/24 09:16:23;;;;;;;19.58;3.00;;;14.00;99.90;;;;;;5044046;28;20053;-90
2021/10/24 09:19:14;;;;;;;8.65;2.08;;;14.00;99.90;;;;;;5046852;28;20080;-91
2021/10/24 09:21:46;;;;;;;10.48;2.03;;;14.10;99.90;;;;;;5052878;28;20045;-91
2021/10/24 09:24:24;;;;;;;6.13;2.30;;;14.10;99.90;;;;;;5048892;28;20053;-90
2021/10/24 09:27:02;;;;;;;7.47;1.92;;;14.10;99.90;;;;;;4996131;28;20050;-90
2021/10/24 09:29:35;;;;;;;5.72;1.83;;;14.10;99.90;;;;;;5023712;28;20053;-92
2021/10/24 09:32:13;;;;;;;10.32;1.85;;;14.00;99.90;;;;;;5027752;28;20048;-91
2021/10/24 09:34:46;;;;;;;3.15;1.83;;;14.00;99.90;;;;;;5041471;28;20060;-91
2021/10/24 09:37:47;;;;;;;4.10;1.48;;;14.00;99.90;;;;;;5030167;28;20045;-92
2021/10/24 09:41:03;;;;;;;12.80;2.53;;;14.00;99.90;;;;;;5039118;28;20061;-93
2021/10/24 09:43:36;;;;;;;4.73;1.63;;;14.00;99.90;;;;;;5011879;28;20046;-93
2021/10/24 09:46:12;;;;;;;8.70;1.88;;;14.10;99.90;;;;;;5027008;28;20291;-91
2021/10/24 09:49:02;;;;;;;6.55;1.92;;;14.00;99.90;;;;;;5040494;28;20556;-88
2021/10/24 09:51:36;;;;;;;4.57;1.80;;;13.90;99.90;;;;;;5037356;28;20079;-89
2021/10/24 09:54:18;;;;;;;5.03;1.70;;;14.00;99.90;;;;;;5033895;28;20858;-90
2021/10/24 09:56:49;;;;;;;6.88;2.05;;;13.80;99.90;;;;;;5040747;28;20045;-87
2021/10/24 09:59:21;;;;;;;12.18;2.03;;;13.80;99.90;;;;;;5052974;28;20049;-87
2021/10/24 10:01:52;;;;;;;7.32;3.03;;;13.80;99.90;;;;;;5024623;28;20238;-89
2021/10/24 10:04:25;;;;;;;6.47;1.60;;;13.70;99.90;;;;;;5038867;28;20038;-88
2021/10/24 10:06:57;;;;;;;8.90;1.95;;;13.70;99.90;;;;;;5039173;28;20079;-89
2021/10/24 10:09:27;;;;;;;10.35;1.98;;;13.70;99.90;;;;;;5039602;28;20049;-88
2021/10/24 10:11:59;;;;;;;82.43;8.90;;;13.70;99.90;;;;;;5045362;28;20067;-88
2021/10/24 10:14:37;;;;;;;9.32;2.08;;;13.70;99.90;;;;;;5044233;28;20064;-89
2021/10/24 10:17:11;;;;;;;9.90;1.77;;;13.20;99.90;;;;;;5064312;28;20044;-90
2021/10/24 10:19:47;;;;;;;12.88;2.47;;;13.60;99.90;;;;;;5044474;28;20052;-88
2021/10/24 10:22:22;;;;;;;3.53;2.35;;;13.60;99.90;;;;;;5039509;28;20057;-90
2021/10/24 10:25:08;;;;;;;4.55;2.10;;;13.60;99.90;;;;;;5040274;28;20045;-90
2021/10/24 10:27:39;;;;;;;7.40;1.70;;;13.60;99.90;;;;;;5031465;28;20059;-90
2021/10/24 10:30:17;;;;;;;7.75;2.35;;;13.70;99.90;;;;;;5050883;28;20049;-91
2021/10/24 10:33:01;;;;;;;8.55;2.80;;;13.60;99.90;;;;;;5034992;28;20059;-88
2021/10/24 10:35:31;;;;;;;3.40;1.60;;;13.70;99.90;;;;;;5030025;28;20048;-88
2021/10/24 10:38:03;;;;;;;12.25;2.47;;;13.70;99.90;;;;;;5032051;28;20049;-89
2021/10/24 10:40:40;;;;;;;8.80;1.92;;;13.80;99.90;;;;;;5032371;28;20060;-89
2021/10/24 10:43:21;;;;;;;4.10;1.65;;;13.90;99.90;;;;;;5047659;28;20057;-90
2021/10/24 10:45:53;;;;;;;8.23;1.95;;;13.90;99.90;;;;;;5029626;28;20738;-89
2021/10/24 10:48:41;;;;;;;6.05;1.60;;;12.80;99.90;;;;;;5033442;28;20075;-89
2021/10/24 10:51:24;;;;;;;14.50;1.73;;;14.00;99.90;;;;;;5049526;28;20052;-89
2021/10/24 10:54:05;;;;;;;4.45;1.88;;;14.10;99.90;;;;;;5058385;28;20063;-87
2021/10/24 10:56:43;;;;;;;6.25;1.83;;;14.20;99.90;;;;;;4708999;28;10000488;-88
2021/10/24 10:59:32;;;;;;;5.57;1.70;;;14.30;99.90;;;;;;5058307;28;20397;-89
2021/10/24 11:02:28;;;;;;;11.07;1.83;;;14.30;99.90;;;;;;5059703;28;20124;-89
2021/10/24 11:05:00;;;;;;;4.72;1.38;;;14.40;99.90;;;;;;5025112;28;20816;-89
2021/10/24 11:07:43;;;;;;;9.02;2.20;;;14.30;99.90;;;;;;5007528;28;20128;-88
2021/10/24 11:10:35;;;;;;;12.80;2.83;;;14.40;99.90;;;;;;5026234;28;20049;-90
2021/10/24 11:13:29;;;;;;;7.95;1.85;;;14.30;99.90;;;;;;5036107;28;20053;-87
2021/10/24 11:16:37;;;;;;;6.00;1.77;;;14.30;99.90;;;;;;5057583;28;20053;-88
2021/10/24 11:22:10;;;;;;;7.07;2.00;;;14.30;99.90;;;;;;5053075;28;20049;-89
2021/10/24 11:24:50;;;;;;;11.90;1.75;;;14.30;99.90;;;;;;5050219;28;20056;-88
2021/10/24 11:27:29;;;;;;;5.20;1.50;;;14.30;99.90;;;;;;5044924;28;20600;-89
2021/10/24 11:30:03;;;;;;;5.13;2.05;;;14.30;99.90;;;;;;5041933;28;20424;-87
2021/10/24 11:32:34;;;;;;;10.52;1.63;;;14.40;99.90;;;;;;5055487;28;20045;-89
2021/10/24 11:35:14;;;;;;;6.43;1.73;;;14.40;99.90;;;;;;5055373;28;20053;-88
2021/10/24 11:37:48;;;;;;;11.07;2.60;;;14.40;99.80;;;;;;5062924;28;20045;-89
2021/10/24 11:40:22;;;;;;;6.22;1.50;;;13.90;99.90;;;;;;5031316;28;20041;-89
2021/10/24 11:43:00;;;;;;;5.63;1.52;;;14.40;99.90;;;;;;5043718;28;20060;-88
2021/10/24 11:45:45;;;;;;;12.48;4.00;;;14.40;99.90;;;;;;5041769;28;20129;-89
2021/10/24 11:48:29;;;;;;;5.82;2.25;;;14.30;99.90;;;;;;5048768;28;20065;-88
2021/10/24 11:51:13;;;;;;;11.15;2.97;;;14.40;99.90;;;;;;5057953;28;20037;-88
2021/10/24 11:53:44;;;;;;;5.55;1.52;;;14.60;99.90;;;;;;5059790;28;20041;-88
2021/10/24 11:56:53;;;;;;;4.72;2.00;;;14.80;99.90;;;;;;5050224;28;20049;-88
2021/10/24 11:59:34;;;;;;;7.43;1.90;;;14.90;99.80;;;;;;5052817;28;20428;-87
2021/10/24 12:02:11;;;;;;;10.80;1.75;;;15.00;99.90;;;;;;5055303;28;20041;-89
2021/10/24 12:04:40;;;;;;;6.70;2.25;;;15.00;99.90;;;;;;5027654;28;20057;-89
2021/10/24 12:07:16;;;;;;;16.58;2.13;;;14.90;99.90;;;;;;5044096;28;20055;-90
2021/10/24 12:09:47;;;;;;;10.18;2.60;;;14.80;99.90;;;;;;5054907;28;20053;-87
2021/10/24 12:12:23;;;;;;;7.18;2.60;;;14.70;99.90;;;;;;5046327;28;20403;-89
2021/10/24 12:15:10;;;;;;;8.93;2.38;;;14.60;99.90;;;;;;5026382;28;20065;-89
2021/10/24 12:17:40;;;;;;;3.60;1.73;;;14.60;99.90;;;;;;5049567;28;20042;-88
2021/10/24 12:20:28;;;;;;;4.10;1.77;;;14.50;99.90;;;;;;5044390;28;20523;-90
2021/10/24 12:23:00;;;;;;;6.25;2.15;;;14.50;99.90;;;;;;5061801;28;20060;-89
2021/10/24 12:25:43;;;;;;;6.03;2.03;;;14.70;99.90;;;;;;5061282;28;20049;-89
2021/10/24 12:28:18;;;;;;;8.88;1.95;;;14.80;99.80;;;;;;5058982;28;20052;-87
2021/10/24 12:30:58;;;;;;;11.73;2.38;;;14.80;99.70;;;;;;5036999;28;20132;-88
2021/10/24 12:33:33;;;;;;;7.25;1.88;;;14.90;99.90;;;;;;5031902;28;20053;-89
2021/10/24 12:36:07;;;;;;;6.63;2.13;;;14.90;99.90;;;;;;5042159;28;20052;-87
2021/10/24 12:38:51;;;;;;;6.65;2.30;;;15.20;99.90;;;;;;5013084;28;20055;-91
2021/10/24 12:41:43;;;;;;;6.05;1.73;;;14.90;99.70;;;;;;5047155;28;20045;-89
2021/10/24 12:44:33;;;;;;;9.63;3.00;;;14.90;99.60;;;;;;5036582;28;20509;-90
2021/10/24 12:47:15;;;;;;;9.95;1.85;;;14.80;99.50;;;;;;5064600;28;20052;-89
2021/10/24 12:49:56;;;;;;;9.27;1.80;;;14.80;99.60;;;;;;5039238;28;20049;-89
2021/10/24 12:52:26;;;;;;;4.13;1.77;;;14.80;99.70;;;;;;5017388;28;20055;-89
2021/10/24 12:55:00;;;;;;;11.80;2.28;;;14.80;99.80;;;;;;5056366;28;20470;-90
2021/10/24 12:57:34;;;;;;;3.50;1.73;;;14.80;99.70;;;;;;5042789;28;20056;-90
2021/10/24 13:00:04;;;;;;;5.07;1.48;;;14.70;99.80;;;;;;5053375;28;20051;-90
2021/10/24 13:02:35;;;;;;;7.30;1.50;;;14.70;99.90;;;;;;5038867;28;20044;-89
2021/10/24 13:05:03;;;;;;;6.63;1.65;;;14.70;99.90;;;;;;5054201;28;20049;-89
2021/10/24 13:07:31;;;;;;;5.90;2.10;;;14.60;99.90;;;;;;5056393;28;20044;-90
2021/10/24 13:09:58;;;;;;;6.80;1.98;;;14.60;99.90;;;;;;5040945;28;20052;-89
2021/10/24 13:12:26;;;;;;;7.13;1.90;;;14.60;99.90;;;;;;5036942;28;20374;-89
2021/10/24 13:14:54;;;;;;;4.60;1.70;;;14.50;99.90;;;;;;5023304;28;20064;-89
2021/10/24 13:17:26;;;;;;;5.57;1.90;;;14.50;99.90;;;;;;5052166;28;20032;-91
2021/10/24 13:19:56;;;;;;;4.88;2.20;;;14.50;99.90;;;;;;5050717;28;20038;-87
2021/10/24 13:25:14;;;;;;;10.55;3.15;;;14.50;99.90;;;;;;5047989;28;20057;-89
2021/10/24 13:27:43;;;;;;;7.78;2.50;;;14.50;99.90;;;;;;5020442;28;20060;-90
2021/10/24 13:30:12;;;;;;;4.88;2.25;;;14.60;99.90;;;;;;5039285;28;20059;-89
2021/10/24 13:32:42;;;;;;;4.35;1.95;;;14.60;99.90;;;;;;5039283;28;20052;-89
2021/10/24 13:35:12;;;;;;;9.05;2.20;;;14.60;99.90;;;;;;5038901;28;20068;-88
2021/10/24 13:37:40;;;;;;;6.75;2.15;;;14.60;99.90;;;;;;5056839;28;20053;-87
2021/10/24 13:40:10;;;;;;;8.35;2.00;;;14.70;99.90;;;;;;5030296;28;20049;-90
2021/10/24 13:42:42;;;;;;;8.23;2.15;;;14.80;99.90;;;;;;5032982;28;20400;-89
2021/10/24 13:45:11;;;;;;;7.22;2.92;;;14.80;99.90;;;;;;5044021;28;20542;-91
2021/10/24 13:47:42;;;;;;;8.50;2.42;;;14.90;99.90;;;;;;5042174;28;20500;-88
2021/10/24 13:50:14;;;;;;;15.43;3.28;;;14.90;99.90;;;;;;5042010;28;20404;-86